sensor_id;sensor_type;location;lat;lon;timestamp;temperature;humidity
9760;DHT22;4919;48.792;9.202;2022-11-15T00:01:46;4.50;99.90
9760;DHT22;4919;48.792;9.202;2022-11-15T00:04:32;4.40;99.90
9760;DHT22;4919;48.792;9.202;2022-11-15T00:07:17;4.40;99.90
9760;DHT22;4919;48.792;9.202;2022-11-15T00:10:22;4.60;99.90
9760;DHT22;4919;48.792;9.202;2022-11-15T00:13:12;4.60;99.90
9760;DHT22;4919;48.792;9.202;2022-11-15T00:15:59;4.60;99.90
9760;DHT22;4919;48.792;9.202;2022-11-15T00:18:44;4.60;99.90
9760;DHT22;4919;48.792;9.202;2022-11-15T00:21:35;4.40;99.90
9760;DHT22;4919;48.792;9.202;2022-11-15T00:24:20;4.30;99.90
9760;DHT22;4919;48.792;9.202;2022-11-15T00:27:06;4.20;99.90
9760;DHT22;4919;48.792;9.202;2022-11-15T00:29:52;4.10;99.90
9760;DHT22;4919;48.792;9.202;2022-11-15T00:32:38;4.10;99.90
9760;DHT22;4919;48.792;9.202;2022-11-15T00:35:24;4.10;99.90
9760;DHT22;4919;48.792;9.202;2022-11-15T00:38:09;4.10;99.90
9760;DHT22;4919;48.792;9.202;2022-11-15T00:40:54;4.10;99.90
9760;DHT22;4919;48.792;9.202;2022-11-15T00:43:40;4.00;99.90
9760;DHT22;4919;48.792;9.202;2022-11-15T00:46:28;4.00;99.90
9760;DHT22;4919;48.792;9.202;2022-11-15T00:49:14;4.00;99.90
9760;DHT22;4919;48.792;9.202;2022-11-15T00:51:59;4.00;99.90
9760;DHT22;4919;48.792;9.202;2022-11-15T00:54:45;4.00;99.90
9760;DHT22;4919;48.792;9.202;2022-11-15T00:57:30;4.00;99.90
9760;DHT22;4919;48.792;9.202;2022-11-15T01:00:16;4.00;99.90
9760;DHT22;4919;48.792;9.202;2022-11-15T01:03:02;4.00;99.90
9760;DHT22;4919;48.792;9.202;2022-11-15T01:05:47;4.00;99.90
9760;DHT22;4919;48.792;9.202;2022-11-15T01:08:33;4.00;99.90
9760;DHT22;4919;48.792;9.202;2022-11-15T01:11:19;4.10;99.90
9760;DHT22;4919;48.792;9.202;2022-11-15T01:14:04;4.10;99.90
9760;DHT22;4919;48.792;9.202;2022-11-15T01:16:50;4.10;99.90
9760;DHT22;4919;48.792;9.202;2022-11-15T01:19:35;4.10;99.90
9760;DHT22;4919;48.792;9.202;2022-11-15T01:22:21;4.10;99.90
9760;DHT22;4919;48.792;9.202;2022-11-15T01:25:06;4.00;99.90
9760;DHT22;4919;48.792;9.202;2022-11-15T01:27:52;4.10;99.90
9760;DHT22;4919;48.792;9.202;2022-11-15T01:30:37;4.10;99.90
9760;DHT22;4919;48.792;9.202;2022-11-15T01:33:23;4.10;99.90
9760;DHT22;4919;48.792;9.202;2022-11-15T01:36:15;4.10;99.90
9760;DHT22;4919;48.792;9.202;2022-11-15T01:39:01;4.10;99.90
9760;DHT22;4919;48.792;9.202;2022-11-15T01:41:46;4.10;99.90
9760;DHT22;4919;48.792;9.202;2022-11-15T01:44:39;4.10;99.90
9760;DHT22;4919;48.792;9.202;2022-11-15T01:47:36;4.10;99.90
9760;DHT22;4919;48.792;9.202;2022-11-15T01:50:26;4.10;99.90
9760;DHT22;4919;48.792;9.202;2022-11-15T01:53:12;4.10;99.90
9760;DHT22;4919;48.792;9.202;2022-11-15T01:56:00;4.10;99.90
9760;DHT22;4919;48.792;9.202;2022-11-15T01:58:47;4.20;99.90
9760;DHT22;4919;48.792;9.202;2022-11-15T02:01:33;4.10;99.90
9760;DHT22;4919;48.792;9.202;2022-11-15T02:04:24;4.10;99.90
9760;DHT22;4919;48.792;9.202;2022-11-15T02:07:12;4.10;99.90
9760;DHT22;4919;48.792;9.202;2022-11-15T02:10:08;4.00;99.90
9760;DHT22;4919;48.792;9.202;2022-11-15T02:12:55;4.10;99.90
9760;DHT22;4919;48.792;9.202;2022-11-15T02:16:04;4.20;99.90
9760;DHT22;4919;48.792;9.202;2022-11-15T02:31:57;4.00;99.90
9760;DHT22;4919;48.792;9.202;2022-11-15T02:35:13;3.90;99.90
9760;DHT22;4919;48.792;9.202;2022-11-15T02:41:51;3.70;99.90
9760;DHT22;4919;48.792;9.202;2022-11-15T02:44:36;3.70;99.90
9760;DHT22;4919;48.792;9.202;2022-11-15T02:47:23;3.80;99.90
9760;DHT22;4919;48.792;9.202;2022-11-15T02:50:16;3.70;99.90
9760;DHT22;4919;48.792;9.202;2022-11-15T02:53:02;3.60;99.90
9760;DHT22;4919;48.792;9.202;2022-11-15T02:55:50;3.60;99.90
9760;DHT22;4919;48.792;9.202;2022-11-15T03:01:39;3.40;99.90
9760;DHT22;4919;48.792;9.202;2022-11-15T03:10:48;3.40;99.90
9760;DHT22;4919;48.792;9.202;2022-11-15T03:13:57;3.40;99.90
9760;DHT22;4919;48.792;9.202;2022-11-15T03:16:57;3.50;99.90
9760;DHT22;4919;48.792;9.202;2022-11-15T03:19:53;3.60;99.90
9760;DHT22;4919;48.792;9.202;2022-11-15T03:22:43;3.60;99.90
9760;DHT22;4919;48.792;9.202;2022-11-15T03:25:32;3.60;99.90
9760;DHT22;4919;48.792;9.202;2022-11-15T03:28:23;3.70;99.90
9760;DHT22;4919;48.792;9.202;2022-11-15T03:31:11;3.80;99.90
9760;DHT22;4919;48.792;9.202;2022-11-15T03:34:27;3.70;99.90
9760;DHT22;4919;48.792;9.202;2022-11-15T03:37:15;3.70;99.90
9760;DHT22;4919;48.792;9.202;2022-11-15T03:40:03;3.70;99.90
9760;DHT22;4919;48.792;9.202;2022-11-15T03:43:09;3.70;99.90
9760;DHT22;4919;48.792;9.202;2022-11-15T03:46:06;3.70;99.90
9760;DHT22;4919;48.792;9.202;2022-11-15T03:48:58;3.70;99.90
9760;DHT22;4919;48.792;9.202;2022-11-15T03:51:45;3.80;99.90
9760;DHT22;4919;48.792;9.202;2022-11-15T03:54:30;3.70;99.90
9760;DHT22;4919;48.792;9.202;2022-11-15T03:57:16;3.60;99.90
9760;DHT22;4919;48.792;9.202;2022-11-15T04:00:02;3.50;99.90
9760;DHT22;4919;48.792;9.202;2022-11-15T04:02:48;3.50;99.90
9760;DHT22;4919;48.792;9.202;2022-11-15T04:05:34;3.50;99.90
9760;DHT22;4919;48.792;9.202;2022-11-15T04:08:19;3.40;99.90
9760;DHT22;4919;48.792;9.202;2022-11-15T04:11:04;3.50;99.90
9760;DHT22;4919;48.792;9.202;2022-11-15T04:13:50;3.50;99.90
9760;DHT22;4919;48.792;9.202;2022-11-15T04:16:35;3.50;99.90
9760;DHT22;4919;48.792;9.202;2022-11-15T04:19:27;3.50;99.90
9760;DHT22;4919;48.792;9.202;2022-11-15T04:22:31;3.40;99.90
9760;DHT22;4919;48.792;9.202;2022-11-15T04:25:35;3.40;99.90
9760;DHT22;4919;48.792;9.202;2022-11-15T04:28:21;3.50;99.90
9760;DHT22;4919;48.792;9.202;2022-11-15T04:31:07;3.40;99.90
9760;DHT22;4919;48.792;9.202;2022-11-15T04:33:53;3.40;99.90
9760;DHT22;4919;48.792;9.202;2022-11-15T04:36:38;3.30;99.90
9760;DHT22;4919;48.792;9.202;2022-11-15T04:39:43;3.30;99.90
9760;DHT22;4919;48.792;9.202;2022-11-15T04:42:28;3.30;99.90
9760;DHT22;4919;48.792;9.202;2022-11-15T04:45:14;3.30;99.90
9760;DHT22;4919;48.792;9.202;2022-11-15T04:48:00;3.30;99.90
9760;DHT22;4919;48.792;9.202;2022-11-15T04:50:48;3.30;99.90
9760;DHT22;4919;48.792;9.202;2022-11-15T04:53:32;3.20;99.90
9760;DHT22;4919;48.792;9.202;2022-11-15T04:56:19;3.20;99.90
9760;DHT22;4919;48.792;9.202;2022-11-15T04:59:04;3.30;99.90
9760;DHT22;4919;48.792;9.202;2022-11-15T05:01:50;3.30;99.90
9760;DHT22;4919;48.792;9.202;2022-11-15T05:04:36;3.30;99.90
9760;DHT22;4919;48.792;9.202;2022-11-15T05:07:21;3.30;99.90
9760;DHT22;4919;48.792;9.202;2022-11-15T05:10:08;3.30;99.90
9760;DHT22;4919;48.792;9.202;2022-11-15T05:12:54;3.30;99.90
9760;DHT22;4919;48.792;9.202;2022-11-15T05:15:39;3.40;99.90
9760;DHT22;4919;48.792;9.202;2022-11-15T05:18:25;3.40;99.90
9760;DHT22;4919;48.792;9.202;2022-11-15T05:21:13;3.50;99.90
9760;DHT22;4919;48.792;9.202;2022-11-15T05:23:59;3.60;99.90
9760;DHT22;4919;48.792;9.202;2022-11-15T05:26:45;3.60;99.90
9760;DHT22;4919;48.792;9.202;2022-11-15T05:29:30;3.70;99.90
9760;DHT22;4919;48.792;9.202;2022-11-15T05:32:16;3.70;99.90
9760;DHT22;4919;48.792;9.202;2022-11-15T05:35:02;3.70;99.90
9760;DHT22;4919;48.792;9.202;2022-11-15T05:37:49;3.70;99.90
9760;DHT22;4919;48.792;9.202;2022-11-15T05:40:34;3.60;99.90
9760;DHT22;4919;48.792;9.202;2022-11-15T05:43:21;3.60;99.90
9760;DHT22;4919;48.792;9.202;2022-11-15T05:46:06;3.60;99.90
9760;DHT22;4919;48.792;9.202;2022-11-15T05:48:53;3.50;99.90
9760;DHT22;4919;48.792;9.202;2022-11-15T05:51:41;3.40;99.90
9760;DHT22;4919;48.792;9.202;2022-11-15T05:54:27;3.30;99.90
9760;DHT22;4919;48.792;9.202;2022-11-15T05:57:13;3.30;99.90
9760;DHT22;4919;48.792;9.202;2022-11-15T05:59:59;3.10;99.90
9760;DHT22;4919;48.792;9.202;2022-11-15T06:02:44;3.20;99.90
9760;DHT22;4919;48.792;9.202;2022-11-15T06:05:29;3.10;99.90
9760;DHT22;4919;48.792;9.202;2022-11-15T06:08:15;3.30;99.90
9760;DHT22;4919;48.792;9.202;2022-11-15T06:11:05;3.40;99.90
9760;DHT22;4919;48.792;9.202;2022-11-15T06:13:51;3.40;99.90
9760;DHT22;4919;48.792;9.202;2022-11-15T06:16:36;3.30;99.90
9760;DHT22;4919;48.792;9.202;2022-11-15T06:19:22;3.20;99.90
9760;DHT22;4919;48.792;9.202;2022-11-15T06:22:07;3.20;99.90
9760;DHT22;4919;48.792;9.202;2022-11-15T06:24:54;3.20;99.90
9760;DHT22;4919;48.792;9.202;2022-11-15T06:27:43;3.20;99.90
9760;DHT22;4919;48.792;9.202;2022-11-15T06:30:28;3.30;99.90
9760;DHT22;4919;48.792;9.202;2022-11-15T06:33:14;3.30;99.90
9760;DHT22;4919;48.792;9.202;2022-11-15T06:36:08;3.30;99.90
9760;DHT22;4919;48.792;9.202;2022-11-15T06:39:02;3.30;99.90
9760;DHT22;4919;48.792;9.202;2022-11-15T06:41:48;3.40;99.90
9760;DHT22;4919;48.792;9.202;2022-11-15T06:44:33;3.40;99.90
9760;DHT22;4919;48.792;9.202;2022-11-15T06:47:19;3.50;99.90
9760;DHT22;4919;48.792;9.202;2022-11-15T06:50:04;3.50;99.90
9760;DHT22;4919;48.792;9.202;2022-11-15T06:52:50;3.50;99.90
9760;DHT22;4919;48.792;9.202;2022-11-15T06:55:36;3.50;99.90
9760;DHT22;4919;48.792;9.202;2022-11-15T06:58:21;3.40;99.90
9760;DHT22;4919;48.792;9.202;2022-11-15T07:01:09;3.50;99.90
9760;DHT22;4919;48.792;9.202;2022-11-15T07:03:55;3.50;99.90
9760;DHT22;4919;48.792;9.202;2022-11-15T07:06:40;3.50;99.90
9760;DHT22;4919;48.792;9.202;2022-11-15T07:09:26;3.60;99.90
9760;DHT22;4919;48.792;9.202;2022-11-15T07:12:12;3.70;99.90
9760;DHT22;4919;48.792;9.202;2022-11-15T07:14:57;3.80;99.90
9760;DHT22;4919;48.792;9.202;2022-11-15T07:17:43;3.80;99.90
9760;DHT22;4919;48.792;9.202;2022-11-15T07:20:28;3.80;99.90
9760;DHT22;4919;48.792;9.202;2022-11-15T07:23:14;3.80;99.90
9760;DHT22;4919;48.792;9.202;2022-11-15T07:25:59;3.80;99.90
9760;DHT22;4919;48.792;9.202;2022-11-15T07:28:45;3.90;99.90
9760;DHT22;4919;48.792;9.202;2022-11-15T07:31:30;4.00;99.90
9760;DHT22;4919;48.792;9.202;2022-11-15T07:34:16;4.20;99.90
9760;DHT22;4919;48.792;9.202;2022-11-15T07:37:01;4.30;99.90
9760;DHT22;4919;48.792;9.202;2022-11-15T07:39:47;4.40;99.90
9760;DHT22;4919;48.792;9.202;2022-11-15T07:42:32;4.40;99.90
9760;DHT22;4919;48.792;9.202;2022-11-15T07:45:44;4.50;99.90
9760;DHT22;4919;48.792;9.202;2022-11-15T07:48:30;4.60;99.90
9760;DHT22;4919;48.792;9.202;2022-11-15T07:51:27;4.70;99.90
9760;DHT22;4919;48.792;9.202;2022-11-15T07:54:12;4.80;99.90
9760;DHT22;4919;48.792;9.202;2022-11-15T07:56:58;4.90;99.90
9760;DHT22;4919;48.792;9.202;2022-11-15T07:59:51;4.90;99.90
9760;DHT22;4919;48.792;9.202;2022-11-15T08:02:36;5.00;99.90
9760;DHT22;4919;48.792;9.202;2022-11-15T08:05:22;5.10;99.90
9760;DHT22;4919;48.792;9.202;2022-11-15T08:08:09;5.20;99.90
9760;DHT22;4919;48.792;9.202;2022-11-15T08:10:56;5.30;99.90
9760;DHT22;4919;48.792;9.202;2022-11-15T08:13:41;5.40;99.90
9760;DHT22;4919;48.792;9.202;2022-11-15T08:16:27;5.50;99.90
9760;DHT22;4919;48.792;9.202;2022-11-15T08:19:13;5.60;99.90
9760;DHT22;4919;48.792;9.202;2022-11-15T08:21:58;5.70;99.90
9760;DHT22;4919;48.792;9.202;2022-11-15T08:24:44;5.70;99.90
9760;DHT22;4919;48.792;9.202;2022-11-15T08:27:29;5.90;99.90
9760;DHT22;4919;48.792;9.202;2022-11-15T08:30:15;6.00;99.90
9760;DHT22;4919;48.792;9.202;2022-11-15T08:33:00;6.10;99.90
9760;DHT22;4919;48.792;9.202;2022-11-15T08:35:46;6.30;99.90
9760;DHT22;4919;48.792;9.202;2022-11-15T08:38:31;6.60;99.90
9760;DHT22;4919;48.792;9.202;2022-11-15T08:41:47;6.70;99.90
9760;DHT22;4919;48.792;9.202;2022-11-15T08:44:32;6.90;99.90
9760;DHT22;4919;48.792;9.202;2022-11-15T08:47:18;7.10;99.90
9760;DHT22;4919;48.792;9.202;2022-11-15T08:50:04;7.30;99.90
9760;DHT22;4919;48.792;9.202;2022-11-15T08:52:49;7.70;99.90
9760;DHT22;4919;48.792;9.202;2022-11-15T08:55:38;8.10;99.90
9760;DHT22;4919;48.792;9.202;2022-11-15T08:58:24;8.00;99.90
9760;DHT22;4919;48.792;9.202;2022-11-15T09:01:18;8.00;99.90
9760;DHT22;4919;48.792;9.202;2022-11-15T09:04:04;8.10;99.90
9760;DHT22;4919;48.792;9.202;2022-11-15T09:06:49;8.30;99.90
9760;DHT22;4919;48.792;9.202;2022-11-15T09:09:35;8.40;99.90
9760;DHT22;4919;48.792;9.202;2022-11-15T09:12:21;8.60;99.90
9760;DHT22;4919;48.792;9.202;2022-11-15T09:15:07;8.80;99.90
9760;DHT22;4919;48.792;9.202;2022-11-15T09:17:52;8.90;99.90
9760;DHT22;4919;48.792;9.202;2022-11-15T09:20:38;9.10;99.90
9760;DHT22;4919;48.792;9.202;2022-11-15T09:23:24;9.30;99.90
9760;DHT22;4919;48.792;9.202;2022-11-15T09:26:10;9.40;99.90
9760;DHT22;4919;48.792;9.202;2022-11-15T09:28:55;9.40;99.90
9760;DHT22;4919;48.792;9.202;2022-11-15T09:31:41;9.60;99.90
9760;DHT22;4919;48.792;9.202;2022-11-15T09:34:26;9.90;99.90
9760;DHT22;4919;48.792;9.202;2022-11-15T09:37:12;9.90;99.90
9760;DHT22;4919;48.792;9.202;2022-11-15T09:39:57;10.00;99.90
9760;DHT22;4919;48.792;9.202;2022-11-15T09:46:42;10.30;99.90
9760;DHT22;4919;48.792;9.202;2022-11-15T09:49:02;10.30;99.90
9760;DHT22;4919;48.792;9.202;2022-11-15T09:51:50;10.50;99.90
9760;DHT22;4919;48.792;9.202;2022-11-15T09:54:28;10.80;99.90
9760;DHT22;4919;48.792;9.202;2022-11-15T10:03:08;10.80;99.90
9760;DHT22;4919;48.792;9.202;2022-11-15T10:05:59;11.00;99.90
9760;DHT22;4919;48.792;9.202;2022-11-15T10:11:08;11.30;99.90
9760;DHT22;4919;48.792;9.202;2022-11-15T10:14:14;11.30;99.90
9760;DHT22;4919;48.792;9.202;2022-11-15T10:17:01;11.50;99.90
9760;DHT22;4919;48.792;9.202;2022-11-15T10:20:02;11.50;99.90
9760;DHT22;4919;48.792;9.202;2022-11-15T10:25:25;11.70;99.90
9760;DHT22;4919;48.792;9.202;2022-11-15T10:28:00;11.90;99.90
9760;DHT22;4919;48.792;9.202;2022-11-15T10:30:34;12.10;99.90
9760;DHT22;4919;48.792;9.202;2022-11-15T10:35:46;12.20;99.90
9760;DHT22;4919;48.792;9.202;2022-11-15T10:38:13;12.30;99.90
9760;DHT22;4919;48.792;9.202;2022-11-15T10:40:40;12.40;99.90
9760;DHT22;4919;48.792;9.202;2022-11-15T10:43:15;12.50;99.90
9760;DHT22;4919;48.792;9.202;2022-11-15T10:45:43;12.50;99.90
9760;DHT22;4919;48.792;9.202;2022-11-15T10:50:44;12.60;99.90
9760;DHT22;4919;48.792;9.202;2022-11-15T10:55:58;12.70;99.90
9760;DHT22;4919;48.792;9.202;2022-11-15T10:58:56;12.70;99.90
9760;DHT22;4919;48.792;9.202;2022-11-15T11:01:25;12.90;99.90
9760;DHT22;4919;48.792;9.202;2022-11-15T11:04:00;13.00;99.90
9760;DHT22;4919;48.792;9.202;2022-11-15T11:06:27;13.00;99.90
9760;DHT22;4919;48.792;9.202;2022-11-15T11:09:00;13.00;99.90
9760;DHT22;4919;48.792;9.202;2022-11-15T11:11:46;13.00;99.90
9760;DHT22;4919;48.792;9.202;2022-11-15T11:14:21;13.10;99.90
9760;DHT22;4919;48.792;9.202;2022-11-15T11:17:10;13.20;99.90
9760;DHT22;4919;48.792;9.202;2022-11-15T11:28:54;13.50;99.90
9760;DHT22;4919;48.792;9.202;2022-11-15T11:37:01;13.60;99.90
9760;DHT22;4919;48.792;9.202;2022-11-15T11:39:46;13.60;99.90
9760;DHT22;4919;48.792;9.202;2022-11-15T11:48:00;13.70;99.90
9760;DHT22;4919;48.792;9.202;2022-11-15T11:50:29;13.70;99.90
9760;DHT22;4919;48.792;9.202;2022-11-15T11:55:51;13.70;99.90
9760;DHT22;4919;48.792;9.202;2022-11-15T11:58:38;13.90;99.90
9760;DHT22;4919;48.792;9.202;2022-11-15T12:04:04;14.10;99.90
9760;DHT22;4919;48.792;9.202;2022-11-15T12:12:15;14.30;99.90
9760;DHT22;4919;48.792;9.202;2022-11-15T12:14:49;14.30;99.90
9760;DHT22;4919;48.792;9.202;2022-11-15T12:17:21;14.20;99.90
9760;DHT22;4919;48.792;9.202;2022-11-15T12:19:49;14.20;99.90
9760;DHT22;4919;48.792;9.202;2022-11-15T12:30:45;14.10;99.90
9760;DHT22;4919;48.792;9.202;2022-11-15T12:33:40;14.20;99.90
9760;DHT22;4919;48.792;9.202;2022-11-15T12:39:04;14.20;99.90
9760;DHT22;4919;48.792;9.202;2022-11-15T12:41:37;14.20;99.90
9760;DHT22;4919;48.792;9.202;2022-11-15T12:44:10;14.20;99.90
9760;DHT22;4919;48.792;9.202;2022-11-15T12:59:56;14.00;99.90
9760;DHT22;4919;48.792;9.202;2022-11-15T13:02:35;13.90;99.90
9760;DHT22;4919;48.792;9.202;2022-11-15T13:17:56;13.70;99.90
9760;DHT22;4919;48.792;9.202;2022-11-15T13:20:26;13.60;99.90
9760;DHT22;4919;48.792;9.202;2022-11-15T13:23:07;13.60;99.90
9760;DHT22;4919;48.792;9.202;2022-11-15T13:30:55;13.30;99.90
9760;DHT22;4919;48.792;9.202;2022-11-15T13:33:25;13.30;99.90
9760;DHT22;4919;48.792;9.202;2022-11-15T13:36:06;13.20;99.90
9760;DHT22;4919;48.792;9.202;2022-11-15T13:38:37;13.30;99.90
9760;DHT22;4919;48.792;9.202;2022-11-15T13:41:18;13.30;99.90
9760;DHT22;4919;48.792;9.202;2022-11-15T13:43:46;13.20;99.90
9760;DHT22;4919;48.792;9.202;2022-11-15T13:46:23;13.20;99.90
9760;DHT22;4919;48.792;9.202;2022-11-15T13:48:56;13.20;99.90
9760;DHT22;4919;48.792;9.202;2022-11-15T13:51:33;13.10;99.90
9760;DHT22;4919;48.792;9.202;2022-11-15T13:59:34;12.80;99.90
9760;DHT22;4919;48.792;9.202;2022-11-15T14:02:17;12.70;99.90
9760;DHT22;4919;48.792;9.202;2022-11-15T14:04:53;12.80;99.90
9760;DHT22;4919;48.792;9.202;2022-11-15T14:07:23;12.70;99.90
9760;DHT22;4919;48.792;9.202;2022-11-15T14:09:50;12.70;99.90
9760;DHT22;4919;48.792;9.202;2022-11-15T14:14:53;12.60;99.90
9760;DHT22;4919;48.792;9.202;2022-11-15T14:19:50;12.40;99.90
9760;DHT22;4919;48.792;9.202;2022-11-15T14:22:25;12.30;99.90
9760;DHT22;4919;48.792;9.202;2022-11-15T14:27:32;12.20;99.90
9760;DHT22;4919;48.792;9.202;2022-11-15T14:29:59;12.10;99.90
9760;DHT22;4919;48.792;9.202;2022-11-15T14:32:28;12.00;99.90
9760;DHT22;4919;48.792;9.202;2022-11-15T14:34:58;11.80;99.90
9760;DHT22;4919;48.792;9.202;2022-11-15T14:37:27;11.70;99.90
9760;DHT22;4919;48.792;9.202;2022-11-15T14:39:55;11.60;99.90
9760;DHT22;4919;48.792;9.202;2022-11-15T14:42:23;11.60;99.90
9760;DHT22;4919;48.792;9.202;2022-11-15T14:44:50;11.50;99.90
9760;DHT22;4919;48.792;9.202;2022-11-15T14:47:17;11.50;99.90
9760;DHT22;4919;48.792;9.202;2022-11-15T14:49:45;11.40;99.90
9760;DHT22;4919;48.792;9.202;2022-11-15T14:52:29;11.30;99.90
9760;DHT22;4919;48.792;9.202;2022-11-15T14:55:00;11.30;99.90
9760;DHT22;4919;48.792;9.202;2022-11-15T14:57:28;11.20;99.90
9760;DHT22;4919;48.792;9.202;2022-11-15T14:59:55;11.10;99.90
9760;DHT22;4919;48.792;9.202;2022-11-15T15:02:24;11.00;99.90
9760;DHT22;4919;48.792;9.202;2022-11-15T15:04:52;10.80;99.90
9760;DHT22;4919;48.792;9.202;2022-11-15T15:07:20;10.70;99.90
9760;DHT22;4919;48.792;9.202;2022-11-15T15:09:47;10.60;99.90
9760;DHT22;4919;48.792;9.202;2022-11-15T15:12:19;10.50;99.90
9760;DHT22;4919;48.792;9.202;2022-11-15T15:14:48;10.30;99.90
9760;DHT22;4919;48.792;9.202;2022-11-15T15:17:16;10.20;99.90
9760;DHT22;4919;48.792;9.202;2022-11-15T15:19:43;10.10;99.90
9760;DHT22;4919;48.792;9.202;2022-11-15T15:22:15;9.90;99.90
9760;DHT22;4919;48.792;9.202;2022-11-15T15:24:44;9.80;99.90
9760;DHT22;4919;48.792;9.202;2022-11-15T15:27:11;9.80;99.90
9760;DHT22;4919;48.792;9.202;2022-11-15T15:29:39;9.60;99.90
9760;DHT22;4919;48.792;9.202;2022-11-15T15:32:06;9.50;99.90
9760;DHT22;4919;48.792;9.202;2022-11-15T15:34:33;9.40;99.90
9760;DHT22;4919;48.792;9.202;2022-11-15T15:37:23;9.30;99.90
9760;DHT22;4919;48.792;9.202;2022-11-15T15:39:51;9.30;99.90
9760;DHT22;4919;48.792;9.202;2022-11-15T15:42:19;9.20;99.90
9760;DHT22;4919;48.792;9.202;2022-11-15T15:44:47;9.10;99.90
9760;DHT22;4919;48.792;9.202;2022-11-15T15:47:25;9.10;99.90
9760;DHT22;4919;48.792;9.202;2022-11-15T15:49:52;9.00;99.90
9760;DHT22;4919;48.792;9.202;2022-11-15T15:52:18;9.00;99.90
9760;DHT22;4919;48.792;9.202;2022-11-15T15:54:45;8.90;99.90
9760;DHT22;4919;48.792;9.202;2022-11-15T15:57:13;8.70;99.90
9760;DHT22;4919;48.792;9.202;2022-11-15T15:59:40;8.70;99.90
9760;DHT22;4919;48.792;9.202;2022-11-15T16:02:14;8.70;99.90
9760;DHT22;4919;48.792;9.202;2022-11-15T16:04:41;8.60;99.90
9760;DHT22;4919;48.792;9.202;2022-11-15T16:07:17;8.50;99.90
9760;DHT22;4919;48.792;9.202;2022-11-15T16:09:45;8.50;99.90
9760;DHT22;4919;48.792;9.202;2022-11-15T16:12:35;8.50;99.90
9760;DHT22;4919;48.792;9.202;2022-11-15T16:15:02;8.40;99.90
9760;DHT22;4919;48.792;9.202;2022-11-15T16:17:35;8.30;99.90
9760;DHT22;4919;48.792;9.202;2022-11-15T16:20:04;8.20;99.90
9760;DHT22;4919;48.792;9.202;2022-11-15T16:22:31;8.20;99.90
9760;DHT22;4919;48.792;9.202;2022-11-15T16:24:58;8.20;99.90
9760;DHT22;4919;48.792;9.202;2022-11-15T16:27:24;8.00;99.90
9760;DHT22;4919;48.792;9.202;2022-11-15T16:29:51;8.10;99.90
9760;DHT22;4919;48.792;9.202;2022-11-15T16:32:18;8.00;99.90
9760;DHT22;4919;48.792;9.202;2022-11-15T16:34:45;7.90;99.90
9760;DHT22;4919;48.792;9.202;2022-11-15T16:37:24;7.90;99.90
9760;DHT22;4919;48.792;9.202;2022-11-15T16:39:50;7.80;99.90
9760;DHT22;4919;48.792;9.202;2022-11-15T16:42:22;7.80;99.90
9760;DHT22;4919;48.792;9.202;2022-11-15T16:44:49;7.80;99.90
9760;DHT22;4919;48.792;9.202;2022-11-15T16:47:19;7.80;99.90
9760;DHT22;4919;48.792;9.202;2022-11-15T16:49:46;7.70;99.90
9760;DHT22;4919;48.792;9.202;2022-11-15T16:52:13;7.60;99.90
9760;DHT22;4919;48.792;9.202;2022-11-15T16:54:46;7.60;99.90
9760;DHT22;4919;48.792;9.202;2022-11-15T16:57:13;7.50;99.90
9760;DHT22;4919;48.792;9.202;2022-11-15T16:59:42;7.50;99.90
9760;DHT22;4919;48.792;9.202;2022-11-15T17:02:11;7.50;99.90
9760;DHT22;4919;48.792;9.202;2022-11-15T17:04:39;7.40;99.90
9760;DHT22;4919;48.792;9.202;2022-11-15T17:07:06;7.40;99.90
9760;DHT22;4919;48.792;9.202;2022-11-15T17:09:33;7.40;99.90
9760;DHT22;4919;48.792;9.202;2022-11-15T17:12:00;7.40;99.90
9760;DHT22;4919;48.792;9.202;2022-11-15T17:14:28;7.40;99.90
9760;DHT22;4919;48.792;9.202;2022-11-15T17:16:54;7.30;99.90
9760;DHT22;4919;48.792;9.202;2022-11-15T17:19:21;7.30;99.90
9760;DHT22;4919;48.792;9.202;2022-11-15T17:21:48;7.30;99.90
9760;DHT22;4919;48.792;9.202;2022-11-15T17:24:16;7.30;99.90
9760;DHT22;4919;48.792;9.202;2022-11-15T17:26:43;7.30;99.90
9760;DHT22;4919;48.792;9.202;2022-11-15T17:29:10;7.30;99.90
9760;DHT22;4919;48.792;9.202;2022-11-15T17:31:38;7.40;99.90
9760;DHT22;4919;48.792;9.202;2022-11-15T17:34:06;7.40;99.90
9760;DHT22;4919;48.792;9.202;2022-11-15T17:36:33;7.40;99.90
9760;DHT22;4919;48.792;9.202;2022-11-15T17:39:01;7.40;99.90
9760;DHT22;4919;48.792;9.202;2022-11-15T17:41:29;7.40;99.90
9760;DHT22;4919;48.792;9.202;2022-11-15T17:43:57;7.40;99.90
9760;DHT22;4919;48.792;9.202;2022-11-15T17:46:26;7.40;99.90
9760;DHT22;4919;48.792;9.202;2022-11-15T17:48:54;7.40;99.90
9760;DHT22;4919;48.792;9.202;2022-11-15T17:51:22;7.50;99.90
9760;DHT22;4919;48.792;9.202;2022-11-15T17:53:50;7.50;99.90
9760;DHT22;4919;48.792;9.202;2022-11-15T17:56:19;7.50;99.90
9760;DHT22;4919;48.792;9.202;2022-11-15T17:58:51;7.50;99.90
9760;DHT22;4919;48.792;9.202;2022-11-15T18:01:35;7.50;99.90
9760;DHT22;4919;48.792;9.202;2022-11-15T18:04:06;7.50;99.90
9760;DHT22;4919;48.792;9.202;2022-11-15T18:06:34;7.50;99.90
9760;DHT22;4919;48.792;9.202;2022-11-15T18:09:02;7.50;99.90
9760;DHT22;4919;48.792;9.202;2022-11-15T18:11:40;7.50;99.90
9760;DHT22;4919;48.792;9.202;2022-11-15T18:14:13;7.50;99.90
9760;DHT22;4919;48.792;9.202;2022-11-15T18:16:40;7.50;99.90
9760;DHT22;4919;48.792;9.202;2022-11-15T18:19:07;7.50;99.90
9760;DHT22;4919;48.792;9.202;2022-11-15T18:21:43;7.50;99.90
9760;DHT22;4919;48.792;9.202;2022-11-15T18:24:28;7.40;99.90
9760;DHT22;4919;48.792;9.202;2022-11-15T18:26:57;7.40;99.90
9760;DHT22;4919;48.792;9.202;2022-11-15T18:29:24;7.40;99.90
9760;DHT22;4919;48.792;9.202;2022-11-15T18:31:51;7.40;99.90
9760;DHT22;4919;48.792;9.202;2022-11-15T18:34:26;7.40;99.90
9760;DHT22;4919;48.792;9.202;2022-11-15T18:36:57;7.30;99.90
9760;DHT22;4919;48.792;9.202;2022-11-15T18:39:24;7.30;99.90
9760;DHT22;4919;48.792;9.202;2022-11-15T18:41:51;7.20;99.90
9760;DHT22;4919;48.792;9.202;2022-11-15T18:44:18;7.20;99.90
9760;DHT22;4919;48.792;9.202;2022-11-15T18:46:45;7.10;99.90
9760;DHT22;4919;48.792;9.202;2022-11-15T18:49:13;7.20;99.90
9760;DHT22;4919;48.792;9.202;2022-11-15T18:51:40;7.10;99.90
9760;DHT22;4919;48.792;9.202;2022-11-15T18:54:10;7.10;99.90
9760;DHT22;4919;48.792;9.202;2022-11-15T18:56:37;7.00;99.90
9760;DHT22;4919;48.792;9.202;2022-11-15T18:59:05;7.10;99.90
9760;DHT22;4919;48.792;9.202;2022-11-15T19:01:34;7.10;99.90
9760;DHT22;4919;48.792;9.202;2022-11-15T19:04:13;7.10;99.90
9760;DHT22;4919;48.792;9.202;2022-11-15T19:06:42;7.00;99.90
9760;DHT22;4919;48.792;9.202;2022-11-15T19:09:11;7.00;99.90
9760;DHT22;4919;48.792;9.202;2022-11-15T19:11:39;6.90;99.90
9760;DHT22;4919;48.792;9.202;2022-11-15T19:14:09;6.90;99.90
9760;DHT22;4919;48.792;9.202;2022-11-15T19:16:38;6.80;99.90
9760;DHT22;4919;48.792;9.202;2022-11-15T19:19:07;6.80;99.90
9760;DHT22;4919;48.792;9.202;2022-11-15T19:21:35;6.70;99.90
9760;DHT22;4919;48.792;9.202;2022-11-15T19:24:02;6.70;99.90
9760;DHT22;4919;48.792;9.202;2022-11-15T19:26:29;6.70;99.90
9760;DHT22;4919;48.792;9.202;2022-11-15T19:28:59;6.70;99.90
9760;DHT22;4919;48.792;9.202;2022-11-15T19:31:28;6.70;99.90
9760;DHT22;4919;48.792;9.202;2022-11-15T19:33:58;6.60;99.90
9760;DHT22;4919;48.792;9.202;2022-11-15T19:36:30;6.60;99.90
9760;DHT22;4919;48.792;9.202;2022-11-15T19:38:59;6.60;99.90
9760;DHT22;4919;48.792;9.202;2022-11-15T19:41:30;6.50;99.90
9760;DHT22;4919;48.792;9.202;2022-11-15T19:43:57;6.50;99.90
9760;DHT22;4919;48.792;9.202;2022-11-15T19:46:25;6.40;99.90
9760;DHT22;4919;48.792;9.202;2022-11-15T19:48:53;6.50;99.90
9760;DHT22;4919;48.792;9.202;2022-11-15T19:51:21;6.40;99.90
9760;DHT22;4919;48.792;9.202;2022-11-15T19:53:51;6.40;99.90